Time;durP1;ratioP1;P1;durP2;ratioP2;P2;SDS_P1;SDS_P2;PMS_P1;PMS_P2;Temp;Humidity;BMP_temperature;BMP_pressure;BME280_temperature;BME280_humidity;BME280_pressure;Samples;Min_cycle;Max_cycle;Signal;HPM_P1;HPM_P2
2022/01/01 00:00:39;;;;;;;21.13;15.10;;;14.20;99.90;;;;;;5053831;28;20448;-67
2022/01/01 00:03:06;;;;;;;19.00;12.70;;;14.20;99.90;;;;;;5052967;28;20461;-67
2022/01/01 00:05:33;;;;;;;18.83;12.37;;;14.20;99.90;;;;;;5053130;28;20446;-67
2022/01/01 00:08:02;;;;;;;22.20;13.70;;;14.30;99.90;;;;;;5053086;28;20449;-67
2022/01/01 00:10:30;;;;;;;19.83;12.73;;;14.30;99.90;;;;;;5052971;28;20446;-67
2022/01/01 00:12:57;;;;;;;21.60;13.80;;;14.30;99.90;;;;;;5052827;28;20572;-67
2022/01/01 00:15:25;;;;;;;17.87;12.17;;;14.30;99.90;;;;;;5052965;28;20449;-67
2022/01/01 00:17:51;;;;;;;19.87;15.03;;;14.30;99.90;;;;;;5052998;28;20445;-67
2022/01/01 00:20:18;;;;;;;15.40;13.03;;;14.30;99.90;;;;;;5052543;28;20461;-67
2022/01/01 00:22:45;;;;;;;21.77;15.17;;;14.30;99.90;;;;;;5052817;28;20461;-68
2022/01/01 00:25:13;;;;;;;19.73;15.43;;;14.20;99.90;;;;;;5052916;28;20429;-67
2022/01/01 00:27:40;;;;;;;22.47;16.60;;;14.20;99.90;;;;;;5052670;28;20540;-68
2022/01/01 00:30:08;;;;;;;27.60;16.77;;;14.10;99.90;;;;;;5052879;28;20453;-67
2022/01/01 00:32:38;;;;;;;27.13;18.00;;;14.20;99.90;;;;;;5052899;28;20469;-67
2022/01/01 00:35:06;;;;;;;27.00;18.73;;;14.20;99.90;;;;;;5052967;28;20442;-67
2022/01/01 00:37:33;;;;;;;30.13;20.40;;;14.20;99.90;;;;;;5055052;28;20446;-67
2022/01/01 00:39:59;;;;;;;27.10;23.40;;;14.20;99.90;;;;;;5056363;28;20445;-67
2022/01/01 00:42:26;;;;;;;31.50;24.33;;;14.20;99.90;;;;;;5056257;28;20465;-67
2022/01/01 00:44:54;;;;;;;34.00;25.37;;;14.20;99.90;;;;;;5056349;28;20463;-67
2022/01/01 00:47:20;;;;;;;36.97;26.07;;;14.20;99.90;;;;;;5056202;28;20469;-67
2022/01/01 00:49:48;;;;;;;34.07;26.43;;;14.20;99.90;;;;;;5055853;28;20450;-67
2022/01/01 00:52:15;;;;;;;37.00;27.70;;;14.20;99.90;;;;;;5056071;28;20469;-67
2022/01/01 00:54:42;;;;;;;35.07;27.50;;;14.10;99.90;;;;;;5056020;28;20503;-67
2022/01/01 00:57:08;;;;;;;40.47;29.10;;;14.20;99.90;;;;;;5056086;28;20449;-66
2022/01/01 00:59:35;;;;;;;41.30;29.73;;;14.20;99.90;;;;;;5055930;28;20454;-67
2022/01/01 01:02:02;;;;;;;42.27;32.03;;;14.20;99.90;;;;;;5055801;28;20466;-67
2022/01/01 01:04:29;;;;;;;44.27;34.40;;;14.20;99.90;;;;;;5055867;28;20446;-67
2022/01/01 01:06:57;;;;;;;46.27;34.00;;;14.10;99.90;;;;;;5055531;28;20948;-67
2022/01/01 01:09:24;;;;;;;41.63;31.63;;;14.10;99.90;;;;;;5055820;28;20449;-69
2022/01/01 01:11:52;;;;;;;42.53;32.63;;;14.20;99.90;;;;;;5057597;28;20475;-69
2022/01/01 01:14:21;;;;;;;45.33;34.20;;;14.20;99.90;;;;;;5058216;28;20477;-69
2022/01/01 01:16:50;;;;;;;36.97;31.03;;;14.20;99.90;;;;;;5055720;28;20503;-69
2022/01/01 01:19:18;;;;;;;38.60;30.50;;;14.20;99.90;;;;;;5055515;28;20461;-69
2022/01/01 01:21:46;;;;;;;42.60;30.83;;;14.10;99.90;;;;;;5055494;28;20466;-69
2022/01/01 01:24:15;;;;;;;36.80;29.10;;;14.10;99.90;;;;;;5055508;28;20446;-68
2022/01/01 01:26:48;;;;;;;45.57;29.00;;;14.20;99.90;;;;;;5055516;28;20809;-68
2022/01/01 01:29:14;;;;;;;35.47;26.80;;;14.20;99.90;;;;;;5055614;28;20430;-68
2022/01/01 01:31:41;;;;;;;34.57;26.47;;;14.20;99.90;;;;;;5055277;28;20458;-69
2022/01/01 01:34:08;;;;;;;37.10;26.60;;;14.20;99.90;;;;;;5054984;28;20484;-68
2022/01/01 01:36:38;;;;;;;34.57;23.40;;;14.20;99.90;;;;;;5055297;28;20450;-68
2022/01/01 01:39:06;;;;;;;33.50;23.80;;;14.20;99.90;;;;;;5054891;28;20775;-68
2022/01/01 01:41:34;;;;;;;31.63;22.47;;;14.20;99.90;;;;;;5055128;28;20465;-68
2022/01/01 01:44:02;;;;;;;36.03;22.97;;;14.20;99.90;;;;;;5054827;28;20806;-68
2022/01/01 01:46:29;;;;;;;31.20;22.47;;;14.20;99.90;;;;;;5054825;28;20449;-68
2022/01/01 01:48:56;;;;;;;32.57;20.80;;;14.20;99.90;;;;;;5054073;28;20445;-68
2022/01/01 01:51:24;;;;;;;29.63;20.63;;;14.30;99.90;;;;;;5055139;28;20810;-70
2022/01/01 01:53:51;;;;;;;30.20;20.20;;;14.20;99.90;;;;;;5055118;28;20473;-69
2022/01/01 01:56:18;;;;;;;25.33;18.50;;;14.30;99.90;;;;;;5055107;28;20452;-69
2022/01/01 01:58:46;;;;;;;25.93;18.83;;;14.20;99.90;;;;;;5055538;28;20449;-69
2022/01/01 02:01:24;;;;;;;29.10;18.07;;;14.20;99.90;;;;;;5054738;28;20434;-69
2022/01/01 02:03:54;;;;;;;22.77;16.37;;;14.20;99.90;;;;;;5055437;28;20503;-69
2022/01/01 02:06:22;;;;;;;25.13;17.00;;;14.20;99.90;;;;;;5055182;28;20434;-69
2022/01/01 02:08:50;;;;;;;19.90;15.60;;;14.30;99.90;;;;;;5054784;28;20927;-69
2022/01/01 02:11:18;;;;;;;22.83;13.47;;;14.30;99.90;;;;;;5054508;28;20450;-69
2022/01/01 02:14:02;;;;;;;20.20;12.50;;;14.30;99.90;;;;;;5054239;28;21113;-69
2022/01/01 02:16:39;;;;;;;17.13;11.73;;;14.30;99.90;;;;;;5054365;28;20429;-69
2022/01/01 02:19:06;;;;;;;15.83;11.60;;;14.30;99.90;;;;;;5054243;28;20838;-69
2022/01/01 02:21:34;;;;;;;20.70;11.83;;;14.30;99.90;;;;;;5054218;28;20465;-69
2022/01/01 02:24:00;;;;;;;19.30;12.07;;;14.30;99.90;;;;;;5054422;28;20433;-69
2022/01/01 02:26:33;;;;;;;21.80;12.33;;;14.30;99.90;;;;;;5054416;28;20430;-69
2022/01/01 02:29:00;;;;;;;15.97;11.03;;;14.30;99.90;;;;;;5054130;28;20476;-69
2022/01/01 02:31:27;;;;;;;19.37;12.07;;;14.30;99.90;;;;;;5054042;28;20461;-69
2022/01/01 02:33:55;;;;;;;16.10;11.83;;;14.30;99.90;;;;;;5054076;28;20481;-69
2022/01/01 02:36:33;;;;;;;16.00;12.47;;;14.30;99.90;;;;;;5054145;28;20429;-69
2022/01/01 02:39:02;;;;;;;18.30;11.57;;;14.40;99.90;;;;;;5054128;28;20452;-69
2022/01/01 02:41:29;;;;;;;18.90;13.30;;;14.40;99.90;;;;;;5054387;28;20471;-69
2022/01/01 02:43:56;;;;;;;16.70;11.00;;;14.40;99.90;;;;;;5053981;28;20434;-69
2022/01/01 02:46:23;;;;;;;19.90;10.53;;;14.50;99.90;;;;;;5053701;28;20936;-69
2022/01/01 02:48:50;;;;;;;17.67;11.47;;;14.50;99.90;;;;;;5054010;28;20453;-69
2022/01/01 02:51:17;;;;;;;23.43;10.60;;;14.50;99.90;;;;;;5053835;28;20449;-69
2022/01/01 02:53:45;;;;;;;20.80;12.17;;;14.50;99.90;;;;;;5053430;28;21010;-69
2022/01/01 02:56:13;;;;;;;17.40;10.57;;;14.50;99.90;;;;;;5053769;28;20496;-69
2022/01/01 02:58:41;;;;;;;18.80;11.50;;;14.50;99.90;;;;;;5053705;28;20442;-69
2022/01/01 03:01:08;;;;;;;16.63;10.67;;;14.50;99.90;;;;;;5053333;28;20818;-69
2022/01/01 03:03:35;;;;;;;18.43;10.90;;;14.50;99.90;;;;;;5053711;28;20445;-69
2022/01/01 03:06:01;;;;;;;17.47;10.63;;;14.50;99.90;;;;;;5053711;28;20445;-70
2022/01/01 03:08:28;;;;;;;13.20;9.53;;;14.60;99.90;;;;;;5053333;28;20452;-70
2022/01/01 03:10:55;;;;;;;19.17;10.10;;;14.60;99.90;;;;;;5053628;28;20460;-69
2022/01/01 03:13:23;;;;;;;17.40;10.80;;;14.60;99.90;;;;;;5053082;28;20999;-69
2022/01/01 03:15:50;;;;;;;16.50;11.03;;;14.60;99.90;;;;;;5053536;28;20449;-69
2022/01/01 03:18:16;;;;;;;20.77;11.80;;;14.50;99.90;;;;;;5053280;28;20453;-69
2022/01/01 03:20:44;;;;;;;20.90;11.43;;;14.60;99.90;;;;;;5053499;28;20449;-69
2022/01/01 03:23:11;;;;;;;15.57;11.50;;;14.60;99.90;;;;;;5053367;28;20825;-69
2022/01/01 03:25:37;;;;;;;17.00;11.27;;;14.60;99.90;;;;;;5053417;28;20445;-69
2022/01/01 03:28:05;;;;;;;21.63;13.03;;;14.60;99.90;;;;;;5053873;28;20462;-69
2022/01/01 03:30:33;;;;;;;21.53;12.70;;;14.60;99.90;;;;;;5053429;28;20453;-69
2022/01/01 03:33:00;;;;;;;22.43;13.67;;;14.60;99.90;;;;;;5052970;28;20915;-69
2022/01/01 03:35:27;;;;;;;21.90;13.13;;;14.60;99.90;;;;;;5053335;28;20484;-69
2022/01/01 03:37:54;;;;;;;21.63;14.60;;;14.60;99.90;;;;;;5053336;28;20452;-69
2022/01/01 03:40:21;;;;;;;18.13;12.87;;;14.70;99.90;;;;;;5053338;28;20452;-69
2022/01/01 03:42:47;;;;;;;16.60;11.70;;;14.60;99.90;;;;;;5053273;28;20990;-69
2022/01/01 03:45:14;;;;;;;22.83;13.03;;;14.60;99.90;;;;;;5053447;28;20445;-69
2022/01/01 03:47:42;;;;;;;20.70;12.10;;;14.60;99.90;;;;;;5053394;28;20453;-69
2022/01/01 03:50:09;;;;;;;24.03;13.03;;;14.70;99.90;;;;;;5053206;28;20446;-69
2022/01/01 03:52:40;;;;;;;16.00;11.77;;;14.70;99.90;;;;;;5053187;28;20465;-69
2022/01/01 03:55:08;;;;;;;19.53;13.37;;;14.70;99.90;;;;;;5053169;28;20489;-69
2022/01/01 03:57:35;;;;;;;20.37;12.80;;;14.60;99.90;;;;;;5052931;28;20449;-69
2022/01/01 04:00:01;;;;;;;21.70;12.17;;;14.70;99.90;;;;;;5053150;28;20487;-69
2022/01/01 04:02:28;;;;;;;14.27;10.00;;;14.70;99.90;;;;;;5052724;28;20868;-69
2022/01/01 04:04:56;;;;;;;18.83;11.63;;;14.60;99.90;;;;;;5052751;28;20892;-69
2022/01/01 04:07:23;;;;;;;19.37;11.33;;;14.60;99.90;;;;;;5053037;28;20450;-69
2022/01/01 04:09:49;;;;;;;15.50;10.87;;;14.60;99.90;;;;;;5053212;28;20441;-69
2022/01/01 04:12:16;;;;;;;14.63;10.20;;;14.60;99.90;;;;;;5054845;28;20461;-69
2022/01/01 04:14:43;;;;;;;19.20;10.40;;;14.60;99.90;;;;;;5057948;28;20484;-69
2022/01/01 04:17:11;;;;;;;14.20;9.50;;;14.60;99.90;;;;;;5057639;28;20460;-69
2022/01/01 04:19:39;;;;;;;14.60;9.53;;;14.60;99.90;;;;;;5056783;28;20464;-69
2022/01/01 04:22:08;;;;;;;13.87;8.67;;;14.60;99.90;;;;;;5056949;28;20564;-69
2022/01/01 04:24:35;;;;;;;16.20;8.47;;;14.60;99.90;;;;;;5056851;28;20473;-69
2022/01/01 04:27:02;;;;;;;13.23;8.30;;;14.60;99.90;;;;;;5056701;28;20449;-69
2022/01/01 04:29:29;;;;;;;10.47;7.87;;;14.60;99.90;;;;;;5056575;28;20445;-69
2022/01/01 04:31:56;;;;;;;13.60;8.10;;;14.60;99.90;;;;;;5056708;28;20468;-69
2022/01/01 04:34:24;;;;;;;13.00;7.50;;;14.60;99.90;;;;;;5056443;28;20481;-69
2022/01/01 04:36:59;;;;;;;11.40;7.87;;;14.60;99.90;;;;;;5056661;28;20448;-69
2022/01/01 04:39:27;;;;;;;13.70;7.83;;;14.50;99.90;;;;;;5056598;28;20838;-69
2022/01/01 04:41:54;;;;;;;10.53;6.07;;;14.50;99.90;;;;;;5056268;28;20474;-69
2022/01/01 04:44:21;;;;;;;18.50;6.47;;;14.50;99.90;;;;;;5056564;28;20437;-69
2022/01/01 04:46:48;;;;;;;13.10;6.30;;;14.50;99.90;;;;;;5056215;28;20453;-69
2022/01/01 04:49:15;;;;;;;14.40;5.87;;;14.40;99.90;;;;;;5056239;28;20503;-69
2022/01/01 04:51:42;;;;;;;12.67;5.83;;;14.50;99.90;;;;;;5056975;28;20523;-69
2022/01/01 04:54:15;;;;;;;10.50;5.33;;;14.50;99.90;;;;;;5056246;28;20474;-69
2022/01/01 04:56:44;;;;;;;7.67;5.10;;;14.50;99.90;;;;;;5056110;28;20533;-69
2022/01/01 04:59:11;;;;;;;12.80;4.93;;;14.50;99.90;;;;;;5056022;28;20452;-69
2022/01/01 05:01:39;;;;;;;11.53;5.27;;;14.50;99.90;;;;;;5055661;28;20833;-69
2022/01/01 05:04:06;;;;;;;6.93;4.50;;;14.50;99.90;;;;;;5055957;28;20422;-69
2022/01/01 05:06:33;;;;;;;14.40;5.13;;;14.50;99.90;;;;;;5055732;28;20959;-69
2022/01/01 05:09:00;;;;;;;11.77;5.47;;;14.50;99.90;;;;;;5055533;28;20817;-69
2022/01/01 05:11:27;;;;;;;12.03;5.30;;;14.50;99.90;;;;;;5055845;28;20448;-69
2022/01/01 05:13:55;;;;;;;10.40;5.57;;;14.50;99.90;;;;;;5055705;28;20485;-69
2022/01/01 05:16:22;;;;;;;8.07;5.00;;;14.50;99.90;;;;;;5055685;28;20468;-69
2022/01/01 05:18:49;;;;;;;10.40;4.97;;;14.50;99.90;;;;;;5055419;28;20468;-69
2022/01/01 05:21:16;;;;;;;11.20;4.50;;;14.50;99.90;;;;;;5055384;28;20853;-69
2022/01/01 05:23:43;;;;;;;13.33;4.83;;;14.50;99.90;;;;;;5055390;28;20474;-69
2022/01/01 05:26:09;;;;;;;9.70;4.67;;;14.50;99.90;;;;;;5055220;28;20929;-69
2022/01/01 05:28:36;;;;;;;8.20;4.10;;;14.50;99.90;;;;;;5055595;28;20452;-69
2022/01/01 05:31:05;;;;;;;8.30;4.43;;;14.50;99.90;;;;;;5055549;28;20449;-69
2022/01/01 05:33:32;;;;;;;11.83;5.07;;;14.50;99.90;;;;;;5055357;28;20468;-69
2022/01/01 05:35:58;;;;;;;12.93;4.87;;;14.50;99.90;;;;;;5055296;28;20568;-69
2022/01/01 05:38:25;;;;;;;8.33;4.70;;;14.50;99.90;;;;;;5055408;28;20446;-69
2022/01/01 05:40:52;;;;;;;9.70;4.20;;;14.50;99.90;;;;;;5055332;28;20458;-69
2022/01/01 05:43:19;;;;;;;8.23;3.77;;;14.40;99.90;;;;;;5055213;28;20461;-69
2022/01/01 05:45:46;;;;;;;13.07;4.43;;;14.40;99.90;;;;;;5054829;28;20438;-69
2022/01/01 05:48:14;;;;;;;9.87;4.63;;;14.40;99.90;;;;;;5055095;28;20446;-69
2022/01/01 05:50:41;;;;;;;13.97;4.73;;;14.50;99.90;;;;;;5055067;28;20453;-69
2022/01/01 05:53:08;;;;;;;9.83;4.47;;;14.50;99.90;;;;;;5055007;28;20469;-69
2022/01/01 05:55:35;;;;;;;10.30;4.27;;;14.50;99.90;;;;;;5055057;28;20488;-69
2022/01/01 05:58:02;;;;;;;6.60;4.63;;;14.50;99.90;;;;;;5055010;28;20453;-69
2022/01/01 06:00:28;;;;;;;12.07;4.93;;;14.50;99.90;;;;;;5055167;28;20438;-69
2022/01/01 06:02:58;;;;;;;10.43;4.20;;;14.50;99.90;;;;;;5054975;28;20476;-69
2022/01/01 06:05:27;;;;;;;7.00;4.00;;;14.50;99.90;;;;;;5054757;28;20477;-69
2022/01/01 06:07:55;;;;;;;9.03;4.57;;;14.50;99.90;;;;;;5054897;28;20452;-69
2022/01/01 06:10:21;;;;;;;6.23;4.00;;;14.50;99.90;;;;;;5054686;28;20533;-69
2022/01/01 06:12:48;;;;;;;10.00;4.10;;;14.50;99.90;;;;;;5054624;28;20519;-69
2022/01/01 06:15:15;;;;;;;8.90;3.97;;;14.50;99.90;;;;;;5054552;28;20492;-69
2022/01/01 06:17:42;;;;;;;10.70;4.77;;;14.50;99.90;;;;;;5054249;28;20939;-69
2022/01/01 06:20:10;;;;;;;9.37;4.13;;;14.50;99.90;;;;;;5075924;22;20445;-65
2022/01/01 06:22:38;;;;;;;9.30;3.87;;;14.50;99.90;;;;;;5034647;28;20427;-64
2022/01/01 06:25:06;;;;;;;11.93;3.80;;;14.50;99.90;;;;;;5034664;28;20447;-64
2022/01/01 06:27:33;;;;;;;8.17;4.10;;;14.50;99.90;;;;;;5034493;28;20454;-64
2022/01/01 06:29:59;;;;;;;7.27;4.23;;;14.50;99.90;;;;;;5034124;28;20931;-64
2022/01/01 06:32:26;;;;;;;8.37;3.97;;;14.50;99.90;;;;;;5034394;28;20455;-64
2022/01/01 06:34:53;;;;;;;10.40;3.70;;;14.50;99.90;;;;;;5033808;28;20485;-64
2022/01/01 06:37:19;;;;;;;10.53;4.03;;;14.50;99.90;;;;;;5034053;28;20931;-64
2022/01/01 06:39:49;;;;;;;10.70;4.00;;;14.40;99.90;;;;;;5034241;28;20457;-64
2022/01/01 06:42:16;;;;;;;10.30;3.60;;;14.40;99.90;;;;;;5034221;28;20469;-64
2022/01/01 06:44:43;;;;;;;5.70;3.60;;;14.50;99.90;;;;;;5034159;28;20465;-64
2022/01/01 06:47:10;;;;;;;9.47;3.60;;;14.40;99.90;;;;;;5033861;28;20869;-64
2022/01/01 06:49:37;;;;;;;7.60;3.77;;;14.40;99.90;;;;;;5034083;28;20450;-64
2022/01/01 06:52:05;;;;;;;12.83;4.60;;;14.40;99.90;;;;;;5034059;28;20470;-64
2022/01/01 06:54:32;;;;;;;10.00;4.00;;;14.40;99.90;;;;;;5033978;28;20447;-64
2022/01/01 06:57:00;;;;;;;9.27;3.73;;;14.40;99.90;;;;;;5034024;28;20422;-64
2022/01/01 06:59:26;;;;;;;14.47;3.80;;;14.40;99.90;;;;;;5033623;28;21006;-64
2022/01/01 07:01:53;;;;;;;12.23;4.30;;;14.40;99.90;;;;;;5033868;28;20915;-64
2022/01/01 07:04:20;;;;;;;9.63;3.63;;;14.40;99.90;;;;;;5033905;28;20454;-64
2022/01/01 07:06:48;;;;;;;5.90;3.30;;;14.40;99.90;;;;;;5033517;28;20446;-64
2022/01/01 07:09:15;;;;;;;8.23;3.13;;;14.40;99.90;;;;;;5033777;28;20454;-64
2022/01/01 07:11:42;;;;;;;8.40;3.97;;;14.40;99.90;;;;;;5033679;28;20470;-64
2022/01/01 07:14:11;;;;;;;9.70;3.40;;;14.40;99.90;;;;;;5034032;28;20450;-64
2022/01/01 07:16:38;;;;;;;7.90;3.77;;;14.40;99.90;;;;;;5033683;28;20505;-64
2022/01/01 07:19:04;;;;;;;6.17;2.93;;;14.40;99.90;;;;;;5033703;28;20485;-64
2022/01/01 07:21:31;;;;;;;8.10;3.20;;;14.40;99.90;;;;;;5033407;28;20482;-64
2022/01/01 07:23:58;;;;;;;10.43;3.57;;;14.40;99.90;;;;;;5033621;28;20533;-64
2022/01/01 07:26:25;;;;;;;8.83;3.67;;;14.40;99.90;;;;;;5033601;28;20762;-64
2022/01/01 07:28:52;;;;;;;6.97;3.20;;;14.40;99.90;;;;;;5033600;28;20442;-64
2022/01/01 07:31:20;;;;;;;8.30;3.63;;;14.40;99.90;;;;;;5033549;28;20466;-64
2022/01/01 07:33:47;;;;;;;11.57;3.83;;;14.40;99.90;;;;;;5033556;28;20450;-64
2022/01/01 07:36:13;;;;;;;8.67;4.40;;;14.40;99.90;;;;;;5033457;28;20477;-64
2022/01/01 07:38:40;;;;;;;5.93;3.77;;;14.40;99.90;;;;;;5033492;28;20446;-64
2022/01/01 07:41:07;;;;;;;7.17;4.37;;;14.40;99.90;;;;;;5033364;28;20466;-64
2022/01/01 07:43:33;;;;;;;8.77;3.90;;;14.40;99.90;;;;;;5033076;28;20446;-64
2022/01/01 07:46:00;;;;;;;9.80;4.20;;;14.40;99.90;;;;;;5033436;28;20449;-64
2022/01/01 07:48:28;;;;;;;8.17;3.60;;;14.40;99.90;;;;;;5037343;28;20457;-64
2022/01/01 07:50:55;;;;;;;6.90;4.30;;;14.40;99.90;;;;;;5037056;28;20979;-64
2022/01/01 07:53:22;;;;;;;8.87;4.80;;;14.40;99.90;;;;;;5037441;28;20496;-64
2022/01/01 07:55:48;;;;;;;8.63;3.90;;;14.40;99.90;;;;;;5037012;28;20996;-64
2022/01/01 07:58:15;;;;;;;7.07;3.70;;;14.40;99.90;;;;;;5037223;28;20442;-64
2022/01/01 08:00:42;;;;;;;7.90;3.93;;;14.40;99.90;;;;;;5037161;28;20474;-64
2022/01/01 08:03:11;;;;;;;11.10;4.60;;;14.50;99.90;;;;;;5037481;28;20449;-64
2022/01/01 08:05:40;;;;;;;10.30;3.87;;;14.50;99.90;;;;;;5037221;28;20442;-64
2022/01/01 08:08:06;;;;;;;9.03;3.87;;;14.50;99.90;;;;;;5037074;28;20438;-64
2022/01/01 08:10:34;;;;;;;12.30;3.70;;;14.50;99.90;;;;;;5036981;28;20467;-64
2022/01/01 08:13:02;;;;;;;5.37;3.83;;;14.50;99.90;;;;;;5037106;28;20450;-64
2022/01/01 08:15:28;;;;;;;6.57;3.83;;;14.50;99.90;;;;;;5036912;28;20488;-64
2022/01/01 08:17:55;;;;;;;6.53;4.13;;;14.50;99.90;;;;;;5036928;28;20500;-64
2022/01/01 08:20:22;;;;;;;7.00;3.67;;;14.60;99.90;;;;;;5036676;28;20485;-64
2022/01/01 08:22:50;;;;;;;8.20;4.30;;;14.60;99.90;;;;;;5036938;28;20426;-64
2022/01/01 08:25:20;;;;;;;6.03;3.90;;;14.60;99.90;;;;;;5036796;28;20923;-64
2022/01/01 08:27:46;;;;;;;7.13;4.37;;;14.60;99.90;;;;;;5036740;28;20454;-64
2022/01/01 08:30:14;;;;;;;6.10;4.00;;;14.60;99.90;;;;;;5036312;28;20466;-64
2022/01/01 08:32:41;;;;;;;5.83;3.03;;;14.70;99.90;;;;;;5036692;28;20454;-65
2022/01/01 08:35:08;;;;;;;9.97;3.60;;;14.70;99.90;;;;;;5036577;28;20493;-64
2022/01/01 08:37:35;;;;;;;9.50;3.40;;;14.80;99.90;;;;;;5036835;28;20453;-64
2022/01/01 08:40:04;;;;;;;6.93;3.30;;;14.80;99.90;;;;;;5036490;28;20438;-64
2022/01/01 08:42:31;;;;;;;6.30;3.40;;;14.80;99.90;;;;;;5036500;28;20469;-64
2022/01/01 08:44:58;;;;;;;4.33;2.90;;;14.80;99.90;;;;;;5036480;28;20851;-64
2022/01/01 08:47:26;;;;;;;5.63;3.60;;;14.80;99.90;;;;;;5036335;28;20459;-64
2022/01/01 08:49:55;;;;;;;8.20;3.90;;;14.90;99.90;;;;;;5036203;28;20449;-64
2022/01/01 08:52:22;;;;;;;6.30;2.97;;;14.90;99.90;;;;;;5036527;28;20452;-64
2022/01/01 08:54:49;;;;;;;6.10;3.40;;;14.90;99.90;;;;;;5036228;28;20442;-64
2022/01/01 08:57:17;;;;;;;4.90;3.30;;;14.90;99.90;;;;;;5035735;28;20488;-64
2022/01/01 08:59:44;;;;;;;6.80;3.23;;;14.90;99.90;;;;;;5036230;28;20485;-64
2022/01/01 09:02:11;;;;;;;6.90;3.57;;;15.00;99.90;;;;;;5036085;28;20875;-64
2022/01/01 09:04:38;;;;;;;9.60;3.17;;;15.00;99.90;;;;;;5036047;28;20453;-65
2022/01/01 09:07:05;;;;;;;11.77;3.43;;;15.10;99.90;;;;;;5036040;28;20442;-64
2022/01/01 09:09:31;;;;;;;6.93;3.50;;;15.20;99.90;;;;;;5036030;28;20522;-64
2022/01/01 09:11:58;;;;;;;4.50;3.47;;;15.20;99.90;;;;;;5035859;28;20476;-64
2022/01/01 09:14:27;;;;;;;9.80;4.07;;;15.30;99.90;;;;;;5035986;28;20431;-64
2022/01/01 09:16:54;;;;;;;7.87;2.57;;;15.30;99.90;;;;;;5035924;28;20482;-64
2022/01/01 09:19:21;;;;;;;5.30;3.10;;;15.30;99.90;;;;;;5035780;28;20533;-64
2022/01/01 09:21:47;;;;;;;4.47;2.70;;;15.40;99.90;;;;;;5035707;28;20850;-64
2022/01/01 09:24:14;;;;;;;6.27;2.67;;;15.50;99.90;;;;;;5036038;28;20458;-64
2022/01/01 09:26:41;;;;;;;6.83;3.17;;;15.50;99.90;;;;;;5035680;28;20442;-64
2022/01/01 09:29:10;;;;;;;5.27;2.77;;;15.60;99.90;;;;;;5035801;28;20438;-64
2022/01/01 09:31:38;;;;;;;4.33;3.03;;;15.70;99.90;;;;;;5035736;28;20492;-64
2022/01/01 09:34:05;;;;;;;11.23;3.20;;;15.70;99.50;;;;;;5035560;28;20442;-64
2022/01/01 09:36:32;;;;;;;5.80;2.50;;;15.70;99.30;;;;;;5035476;28;20470;-64
2022/01/01 09:38:59;;;;;;;8.10;3.37;;;15.70;99.00;;;;;;5035361;28;20500;-64
2022/01/01 09:41:26;;;;;;;6.53;3.20;;;15.70;99.10;;;;;;5034952;28;20994;-64
2022/01/01 09:43:54;;;;;;;4.10;2.80;;;15.80;99.00;;;;;;5035233;28;20501;-64
2022/01/01 09:46:21;;;;;;;5.60;2.87;;;15.80;98.90;;;;;;5034993;28;20893;-64
2022/01/01 09:48:51;;;;;;;5.50;2.93;;;15.80;98.90;;;;;;5035196;28;20446;-64
2022/01/01 09:51:18;;;;;;;4.10;2.40;;;15.80;98.90;;;;;;5034971;28;20584;-64
2022/01/01 09:53:44;;;;;;;5.30;2.80;;;15.90;98.70;;;;;;5034780;28;20951;-64
2022/01/01 09:56:11;;;;;;;7.87;3.00;;;16.00;98.50;;;;;;5035529;28;20466;-64
2022/01/01 09:58:39;;;;;;;5.97;2.70;;;16.00;98.30;;;;;;5035020;28;20450;-64
2022/01/01 10:01:08;;;;;;;7.37;2.57;;;16.00;98.30;;;;;;5034911;28;20475;-65
2022/01/01 10:03:36;;;;;;;7.90;2.50;;;16.10;98.10;;;;;;5034923;28;20446;-65
2022/01/01 10:06:05;;;;;;;5.90;3.10;;;16.10;98.00;;;;;;5035121;28;20439;-64
2022/01/01 10:08:33;;;;;;;9.17;2.90;;;16.10;97.80;;;;;;5034641;28;20792;-65
2022/01/01 10:11:00;;;;;;;6.07;3.03;;;16.10;97.90;;;;;;5034131;28;20474;-65
2022/01/01 10:13:31;;;;;;;5.30;2.70;;;16.10;97.50;;;;;;5034721;28;20439;-65
2022/01/01 10:16:00;;;;;;;6.40;2.90;;;16.20;97.60;;;;;;5034637;28;20475;-65
2022/01/01 10:18:34;;;;;;;5.20;3.00;;;16.20;97.50;;;;;;5034815;28;20447;-64
2022/01/01 10:21:08;;;;;;;8.03;2.90;;;16.20;97.40;;;;;;5034410;28;20570;-65
2022/01/01 10:23:36;;;;;;;6.40;3.07;;;16.20;97.30;;;;;;5034724;28;20430;-65
2022/01/01 10:29:09;;;;;;;4.47;3.03;;;16.30;97.20;;;;;;5034522;28;20406;-64
2022/01/01 10:31:37;;;;;;;6.27;3.20;;;16.30;97.10;;;;;;5034448;28;20838;-64
2022/01/01 10:34:12;;;;;;;4.90;3.13;;;16.30;97.10;;;;;;5034463;28;20451;-64
2022/01/01 10:36:40;;;;;;;4.87;2.80;;;16.40;97.10;;;;;;5034518;28;20879;-64
2022/01/01 10:39:08;;;;;;;5.67;3.30;;;16.30;97.20;;;;;;5034111;28;20924;-64
2022/01/01 10:41:45;;;;;;;9.23;3.40;;;16.30;97.20;;;;;;5034495;28;20477;-64
2022/01/01 10:44:12;;;;;;;5.53;2.43;;;16.30;97.10;;;;;;5034441;28;20434;-64
2022/01/01 10:46:39;;;;;;;5.07;2.40;;;16.40;97.20;;;;;;5034130;28;20462;-64
2022/01/01 10:49:32;;;;;;;9.50;4.63;;;16.40;97.20;;;;;;5033804;28;20935;-64
2022/01/01 10:52:14;;;;;;;3.70;2.30;;;16.40;97.10;;;;;;5033730;28;20467;-64
2022/01/01 10:54:48;;;;;;;5.73;2.77;;;16.50;97.10;;;;;;5033963;28;20431;-65
2022/01/01 10:57:15;;;;;;;4.53;2.60;;;16.50;96.90;;;;;;5033814;28;20466;-65
2022/01/01 10:59:41;;;;;;;4.20;2.47;;;16.50;96.80;;;;;;5033800;28;20450;-65
2022/01/01 11:02:08;;;;;;;3.30;2.80;;;16.50;96.80;;;;;;5033407;28;20998;-65
2022/01/01 11:04:36;;;;;;;4.30;3.20;;;16.60;96.60;;;;;;5033908;28;20457;-65
2022/01/01 11:07:04;;;;;;;4.37;2.87;;;16.60;96.60;;;;;;5033761;28;20449;-65
2022/01/01 11:09:33;;;;;;;5.27;2.70;;;16.50;96.80;;;;;;5033700;28;20454;-65
2022/01/01 11:12:03;;;;;;;6.90;3.30;;;16.60;96.60;;;;;;5033667;28;20466;-65
2022/01/01 11:14:31;;;;;;;7.30;3.20;;;16.60;96.50;;;;;;5033696;28;20502;-65
2022/01/01 11:16:59;;;;;;;6.23;2.83;;;16.60;96.40;;;;;;5033517;28;20482;-65
2022/01/01 11:19:26;;;;;;;6.50;2.70;;;16.70;96.60;;;;;;5033567;28;20454;-65
2022/01/01 11:21:53;;;;;;;9.20;2.80;;;16.70;96.30;;;;;;5032961;28;20478;-65
2022/01/01 11:24:20;;;;;;;3.80;2.80;;;16.70;96.20;;;;;;5033590;28;20454;-65
2022/01/01 11:26:50;;;;;;;4.73;3.03;;;16.80;96.10;;;;;;5033548;28;20442;-65
2022/01/01 11:29:17;;;;;;;8.60;3.50;;;16.90;96.00;;;;;;5033467;28;20453;-65
2022/01/01 11:31:47;;;;;;;4.00;3.37;;;17.10;95.70;;;;;;5033401;28;20463;-64
2022/01/01 11:34:15;;;;;;;4.80;3.30;;;17.20;95.10;;;;;;5033364;28;21005;-64
2022/01/01 11:36:42;;;;;;;7.10;2.83;;;17.40;94.90;;;;;;5033268;28;20482;-65
2022/01/01 11:39:14;;;;;;;8.67;3.87;;;17.60;94.50;;;;;;5033064;28;20940;-65
2022/01/01 11:41:43;;;;;;;5.37;3.20;;;17.70;94.00;;;;;;5033379;28;20485;-65
2022/01/01 11:44:30;;;;;;;6.57;3.00;;;17.80;93.70;;;;;;5033140;28;20974;-65
2022/01/01 11:46:59;;;;;;;5.60;3.00;;;18.10;93.30;;;;;;5033355;28;20434;-65
2022/01/01 11:49:27;;;;;;;5.03;2.90;;;18.30;92.60;;;;;;5032940;28;20951;-65
2022/01/01 11:51:55;;;;;;;6.17;2.37;;;18.50;91.80;;;;;;5033111;28;20501;-65
2022/01/01 11:54:25;;;;;;;5.97;2.67;;;18.70;91.00;;;;;;5033413;28;20435;-65
2022/01/01 11:57:10;;;;;;;6.63;2.80;;;18.90;90.80;;;;;;5033271;28;20467;-65
2022/01/01 11:59:55;;;;;;;5.50;3.00;;;18.90;90.10;;;;;;5033289;28;20429;-65
2022/01/01 12:02:36;;;;;;;3.30;2.37;;;19.10;90.20;;;;;;5033189;28;20431;-65
2022/01/01 12:05:15;;;;;;;3.63;2.00;;;19.30;89.50;;;;;;5033395;28;20442;-65
2022/01/01 12:07:44;;;;;;;3.73;2.57;;;19.50;88.50;;;;;;5033169;28;20431;-65
2022/01/01 12:10:17;;;;;;;5.03;3.13;;;19.60;87.50;;;;;;5033005;28;20431;-65
2022/01/01 12:12:45;;;;;;;4.30;3.10;;;19.60;86.40;;;;;;5033125;28;20450;-65
2022/01/01 12:15:25;;;;;;;3.23;2.50;;;19.70;85.60;;;;;;5033064;28;20448;-65
2022/01/01 12:17:55;;;;;;;5.13;3.97;;;19.60;85.10;;;;;;5032969;28;20473;-65
2022/01/01 12:20:25;;;;;;;4.27;2.80;;;19.50;85.70;;;;;;5032683;28;21065;-65
2022/01/01 12:22:52;;;;;;;5.50;3.13;;;19.40;85.70;;;;;;5074596;22;20496;-68
2022/01/01 12:25:24;;;;;;;3.77;2.70;;;19.30;86.40;;;;;;5052676;28;20953;-68
2022/01/01 12:27:52;;;;;;;3.50;2.70;;;19.30;86.40;;;;;;5052650;28;20951;-67
2022/01/01 12:30:33;;;;;;;6.97;2.60;;;19.60;86.10;;;;;;5053214;28;20464;-67
2022/01/01 12:33:00;;;;;;;3.00;2.60;;;19.60;83.40;;;;;;5054229;28;20456;-68
2022/01/01 12:35:42;;;;;;;3.90;2.23;;;19.70;84.60;;;;;;5056845;28;20440;-68
2022/01/01 12:38:10;;;;;;;4.53;3.10;;;19.80;82.30;;;;;;5056498;28;20469;-67
2022/01/01 12:40:41;;;;;;;5.43;3.37;;;19.70;83.00;;;;;;5056425;28;20445;-67
2022/01/01 12:43:11;;;;;;;4.37;2.97;;;19.90;82.60;;;;;;5056752;28;20430;-67
2022/01/01 12:45:41;;;;;;;4.27;2.50;;;20.00;82.50;;;;;;5056435;28;20484;-67